• Join FlightAware (Why Join?)
  • Login
  • US Flag 
08:29PM EST


 

Airport Tracker/Info


-or-


 

Live Flight TrackerFlight Track Log ✈ ANT507 ✈ 21-Jul-2013 ✈ CYXY - CYYC

Flight Track Log - Related Links

Times and Time Zones

All times are in EDT time to prevent confusion due to time zone crossing. See the ANT507 flight status page for this flight to view local times or setup timezone preferences in your user account.

Time Position Orientation Groundspeed Altitude Reporting Facility
EDT Latitude Longitude Course Direction KTS MPH feet Rate Location/Type
12:22PM 60.1993 -133.8687 122° Southeast  Level FlightAware Approximate
12:23PM 60.1319 -133.6677 125° Southeast  Level FlightAware Approximate
12:24PM 60.0620 -133.4705 126° Southeast  Level FlightAware Approximate
12:25PM 59.9905 -133.2760 126° Southeast  Level FlightAware Approximate
12:26PM 59.9249 -133.0747 124° Southeast  Level FlightAware Approximate
12:27PM 59.8524 -132.8826 127° Southeast  Level FlightAware Approximate
12:28PM 59.7841 -132.6849 123° Southeast  Level FlightAware Approximate
12:29PM 59.7175 -132.4853 123° Southeast  Level FlightAware Approximate
12:30PM 59.6509 -132.2860 123° Southeast  Level FlightAware Approximate
12:31PM 59.5798 -132.0934 126° Southeast  Level FlightAware Approximate
12:32PM 59.5083 -131.9017 126° Southeast  Level FlightAware Approximate
12:33PM 59.4365 -131.7109 126° Southeast  Level FlightAware Approximate
12:34PM 59.3645 -131.5208 127° Southeast  Level FlightAware Approximate
12:35PM 59.2922 -131.3315 127° Southeast  Level FlightAware Approximate
12:36PM 59.2196 -131.1431 127° Southeast  Level FlightAware Approximate
12:37PM 59.1467 -130.9554 127° Southeast  Level FlightAware Approximate
12:38PM 59.0736 -130.7686 127° Southeast  Level FlightAware Approximate
12:39PM 59.0002 -130.5825 127° Southeast  Level FlightAware Approximate
12:40PM 58.9266 -130.3972 128° Southeast  Level FlightAware Approximate
12:41PM 58.8526 -130.2127 128° Southeast  Level FlightAware Approximate
12:42PM 58.7784 -130.0290 128° Southeast  Level FlightAware Approximate
12:43PM 58.7115 -129.8357 123° Southeast  Level FlightAware Approximate
12:44PM 58.6457 -129.6412 123° Southeast  Level FlightAware Approximate
12:45PM 58.5797 -129.4474 123° Southeast  Level FlightAware Approximate
12:46PM 58.5133 -129.2544 123° Southeast  Level FlightAware Approximate
12:47PM 58.4467 -129.0621 123° Southeast  Level FlightAware Approximate
12:48PM 58.3797 -128.8705 124° Southeast  Level FlightAware Approximate
12:49PM 58.3125 -128.6796 124° Southeast  Level FlightAware Approximate
12:50PM 58.2450 -128.4895 124° Southeast  Level FlightAware Approximate
12:51PM 58.1772 -128.3000 124° Southeast  Level FlightAware Approximate
12:52PM 58.1092 -128.1114 124° Southeast  Level FlightAware Approximate
12:53PM 58.0408 -127.9234 124° Southeast  Level FlightAware Approximate
12:54PM 57.9722 -127.7361 125° Southeast  Level FlightAware Approximate
12:55PM 57.9033 -127.5496 125° Southeast  Level FlightAware Approximate
12:56PM 57.8341 -127.3638 125° Southeast  Level FlightAware Approximate
12:57PM 57.7647 -127.1787 125° Southeast  Level FlightAware Approximate
12:58PM 57.6950 -126.9943 125° Southeast  Level FlightAware Approximate
12:59PM 57.6250 -126.8106 125° Southeast  Level FlightAware Approximate
01:00PM 57.5548 -126.6276 126° Southeast  Level FlightAware Approximate
01:01PM 57.4843 -126.4454 126° Southeast  Level FlightAware Approximate
01:02PM 57.4122 -126.2657 127° Southeast  Level FlightAware Approximate
01:03PM 57.3393 -126.0873 127° Southeast  Level FlightAware Approximate
01:04PM 57.2662 -125.9097 127° Southeast  Level FlightAware Approximate
01:05PM 57.1929 -125.7328 127° Southeast  Level FlightAware Approximate
01:06PM 57.1193 -125.5565 128° Southeast  Level FlightAware Approximate
01:07PM 57.0455 -125.3810 128° Southeast  Level FlightAware Approximate
01:08PM 56.9714 -125.2062 128° Southeast  Level FlightAware Approximate
01:08PM 57.0833 -125.6000 127° Southeast 470 541 35,000  Level Edmonton Center
01:09PM 56.8971 -125.0320 128° Southeast  Level FlightAware Approximate
01:09PM 57.0167 -125.4000 121° Southeast 460 529 35,000  Level Edmonton Center
01:10PM 56.8241 -124.8563 127° Southeast  Level FlightAware Approximate
01:10PM 56.9333 -125.2333 132° Southeast 450 518 35,000  Level Edmonton Center
01:11PM 56.7513 -124.6808 127° Southeast  Level FlightAware Approximate
01:11PM 56.8667 -125.0333 121° Southeast 460 529 35,000  Level Edmonton Center
01:12PM 56.6782 -124.5059 127° Southeast  Level FlightAware Approximate
01:12PM 56.7833 -124.8500 130° Southeast 460 529 35,000  Level Edmonton Center
01:13PM 56.6048 -124.3317 127° Southeast  Level FlightAware Approximate
01:13PM 56.7000 -124.6500 127° Southeast 460 529 35,000  Level Edmonton Center
01:14PM 56.6333 -124.4833 126° Southeast 460 529 35,000  Level Edmonton Center
01:15PM 56.5500 -124.2833 127° Southeast 460 529 35,000  Level Edmonton Center
01:16PM 56.4667 -124.1000 129° Southeast 460 529 35,000  Level Edmonton Center
01:17PM 56.3833 -123.9333 132° Southeast 460 529 35,000  Level Edmonton Center
01:18PM 56.3167 -123.7333 121° Southeast 460 529 35,000  Level Edmonton Center
01:19PM 56.2333 -123.5667 132° Southeast 470 541 35,000  Level Edmonton Center
01:20PM 56.1333 -123.3667 132° Southeast 470 541 35,000  Level Edmonton Center
01:21PM 56.0667 -123.2000 126° Southeast 460 529 35,000  Level Edmonton Center
01:22PM 55.9833 -123.0167 129° Southeast 470 541 35,000  Level Edmonton Center
01:23PM 55.9167 -122.8167 121° Southeast 460 529 35,000  Level Edmonton Center
01:24PM 55.8167 -122.6500 137° Southeast 470 541 35,000  Level Edmonton Center
01:25PM 55.7333 -122.4500 126° Southeast 470 541 35,000  Level Edmonton Center
01:26PM 55.6333 -122.2833 137° Southeast 470 541 35,000  Level Edmonton Center
01:27PM 55.5667 -122.1000 123° Southeast 460 529 35,000  Level Edmonton Center
01:28PM 55.4833 -121.9333 131° Southeast 460 529 35,000  Level Edmonton Center
01:29PM 55.4000 -121.7500 129° Southeast 460 529 35,000  Level Edmonton Center
01:30PM 55.3167 -121.6000 134° Southeast 460 529 35,000  Level Edmonton Center
01:31PM 55.2333 -121.4000 126° Southeast 470 541 35,000  Level Edmonton Center
01:32PM 55.1500 -121.2500 134° Southeast 470 541 35,000  Level Edmonton Center
01:33PM 55.0500 -121.0500 131° Southeast 460 529 35,000  Level Edmonton Center
01:34PM 54.9833 -120.8667 122° Southeast 460 529 35,000  Level Edmonton Center
01:35PM 54.9000 -120.7167 134° Southeast 460 529 35,000  Level Edmonton Center
01:36PM 54.8167 -120.5333 128° Southeast 460 529 35,000  Level Edmonton Center
01:37PM 54.7333 -120.3833 134° Southeast 460 529 35,000  Level Edmonton Center
01:38PM 54.6333 -120.1833 131° Southeast 460 529 35,000  Level Edmonton Center
01:39PM 54.5500 -120.0333 134° Southeast 460 529 35,000  Level Edmonton Center
01:40PM 54.4667 -119.8500 128° Southeast 460 529 35,000  Level Edmonton Center
01:41PM 54.3833 -119.7000 134° Southeast 460 529 35,000  Level Edmonton Center
01:42PM 54.2833 -119.5167 133° Southeast 460 529 35,000  Level Edmonton Center
01:43PM 54.2000 -119.3667 133° Southeast 470 541 35,000  Level Edmonton Center
01:44PM 54.1167 -119.2000 130° Southeast 470 541 35,000  Level Edmonton Center
01:45PM 54.0333 -119.0167 128° Southeast 470 541 35,000  Level Edmonton Center
01:46PM 53.9333 -118.8667 139° Southeast 470 541 35,000  Level Edmonton Center
01:47PM 53.8500 -118.7000 130° Southeast 470 541 35,000  Level Edmonton Center
01:48PM 53.7667 -118.5500 133° Southeast 460 529 35,000  Level Edmonton Center
01:49PM 53.6833 -118.3667 127° Southeast 460 529 35,000  Level Edmonton Center
01:50PM 53.5833 -118.2000 135° Southeast 460 529 35,000  Level Edmonton Center
01:51PM 53.5000 -118.0500 133° Southeast 460 529 35,000  Level Edmonton Center
01:52PM 53.4167 -117.9167 136° Southeast 460 529 35,000  Level Edmonton Center
01:53PM 53.3333 -117.7333 127° Southeast 460 529 35,000  Level Edmonton Center
01:54PM 53.2500 -117.6000 136° Southeast 460 529 35,000  Level Edmonton Center
01:55PM 53.1500 -117.4167 132° Southeast 460 529 35,000  Level Edmonton Center
01:56PM 53.0667 -117.2833 136° Southeast 460 529 35,000  Level Edmonton Center
01:57PM 52.9667 -117.1167 135° Southeast 450 518 35,000  Level Edmonton Center
01:58PM 52.8833 -116.9667 133° Southeast 460 529 35,000  Level Edmonton Center
01:59PM 52.8000 -116.8000 130° Southeast 450 518 35,000  Level Edmonton Center
02:00PM 52.7167 -116.6667 136° Southeast 460 529 35,000  Level Edmonton Center
02:01PM 52.6167 -116.5000 135° Southeast 450 518 35,000  Level Edmonton Center
02:02PM 52.5333 -116.3667 136° Southeast 460 529 35,000  Level Edmonton Center
02:03PM 52.4333 -116.2000 135° Southeast 460 529 35,000  Level Edmonton Center
02:04PM 52.3500 -116.0667 136° Southeast 460 529 35,000  Level Edmonton Center
02:05PM 52.2667 -115.9000 129° Southeast 460 529 35,000 -1,200 Level Edmonton Center
02:06PM 52.1667 -115.7667 141° Southeast 460 529 32,700 -2,880 Descending Edmonton Center
02:07PM 52.0667 -115.6000 134° Southeast 460 529 29,300 -3,000 Descending Edmonton Center
02:08PM 51.9833 -115.4333 129° Southeast 460 529 26,700 -2,700 Descending Edmonton Center
02:09PM 51.9000 -115.3167 139° Southeast 450 518 24,000 -2,520 Descending Edmonton Center
02:10PM 51.8000 -115.1833 140° Southeast 440 506 21,700 -2,400 Descending Edmonton Center
02:11PM 51.7333 -115.0500 129° Southeast 430 495 19,300 -2,520 Descending Edmonton Center
02:12PM 51.6333 -114.8833 134° Southeast 420 483 16,700 -2,460 Descending Edmonton Center
02:13PM 51.5667 -114.7667 133° Southeast 410 472 14,400 -2,400 Descending Edmonton Center
02:14PM 51.5000 -114.6333 129° Southeast 390 449 12,000 -1,500 Descending Edmonton Center
02:15PM 51.4167 -114.5167 139° Southeast 350 403 11,400 -780 Descending Edmonton Center
02:16PM 51.3333 -114.4667 159° South 320 368 10,500 -1,080 Descending Edmonton Center
02:17PM 51.2667 -114.4000 148° Southeast 300 345 9,300 -1,260 Descending Edmonton Center
02:18PM 51.2000 -114.3500 155° Southeast 290 334 8,000 -1,080 Descending Edmonton Center
02:19PM 51.1333 -114.2833 148° Southeast 250 288 7,200 -780 Descending Edmonton Center
02:20PM 51.0667 -114.2500 163° South 250 288 6,500 -360 Descending Edmonton Center
02:21PM 51.0000 -114.2000 155° Southeast 230 265 6,500 -60 Level Edmonton Center
02:22PM 50.9667 -114.1500 137° Southeast 220 253 6,400 -600 Descending Edmonton Center
02:23PM 50.9667 -114.0667 90° East 190 219 5,300 -900 Descending Edmonton Center
02:24PM 51.0167 -114.0500 12° North 150 173 4,700 -720 Descending Edmonton Center
02:25PM 51.0500 -114.0500 360° North 140 161 3,900 -600 Descending Edmonton Center
02:26PM 51.0833 -114.0333 17° North 140 161 3,500 -420 Descending Edmonton Center